Time;durP1;ratioP1;P1;durP2;ratioP2;P2;SDS_P1;SDS_P2;PMS_P1;PMS_P2;Temp;Humidity;BMP_temperature;BMP_pressure;BME280_temperature;BME280_humidity;BME280_pressure;Samples;Min_cycle;Max_cycle;Signal;HPM_P1;HPM_P2
2023/01/08 05:37:52;;;;;;;37.83;28.87;;;12.70;99.90;;;;;;4587183;19;20026;-28
2023/01/08 05:39:25;;;;;;;29.00;24.73;;;12.70;99.90;;;;;;4590151;19;20037;-30
2023/01/08 05:40:56;;;;;;;30.23;26.02;;;12.70;99.90;;;;;;4589166;19;20011;-28
2023/01/08 05:42:28;;;;;;;30.33;24.10;;;12.70;99.90;;;;;;4586695;19;20010;-31
2023/01/08 05:44:00;;;;;;;30.37;24.20;;;12.70;99.90;;;;;;4589257;19;20021;-34
2023/01/08 05:45:31;;;;;;;28.38;23.00;;;12.70;99.90;;;;;;4590691;19;20019;-29
2023/01/08 05:47:03;;;;;;;29.10;23.38;;;12.70;99.90;;;;;;4589504;19;20475;-28
2023/01/08 05:48:36;;;;;;;28.33;23.30;;;12.70;99.90;;;;;;4589335;19;20029;-33
2023/01/08 05:50:07;;;;;;;27.80;23.97;;;12.70;99.90;;;;;;4589539;19;20357;-29
2023/01/08 05:51:38;;;;;;;29.60;24.73;;;12.60;99.90;;;;;;4591390;19;20382;-29
2023/01/08 05:53:09;;;;;;;29.98;24.92;;;12.60;99.90;;;;;;4595094;19;20021;-30
2023/01/08 05:54:40;;;;;;;29.20;24.25;;;12.60;99.90;;;;;;4594035;19;20044;-31
2023/01/08 05:56:12;;;;;;;28.58;22.95;;;12.60;99.90;;;;;;4595437;19;20010;-31
2023/01/08 05:57:43;;;;;;;30.83;25.02;;;12.60;99.90;;;;;;4593256;19;20025;-29
2023/01/08 05:59:14;;;;;;;29.00;24.48;;;12.60;99.90;;;;;;4594320;19;20021;-31
2023/01/08 06:00:45;;;;;;;31.70;24.40;;;12.60;99.90;;;;;;4593793;19;20467;-29
2023/01/08 06:02:17;;;;;;;;;;;12.60;99.90;;;;;;4596020;19;20022;-28
2023/01/08 06:03:48;;;;;;;30.67;24.60;;;12.60;99.90;;;;;;4594121;19;19919;-29
2023/01/08 06:05:19;;;;;;;28.17;24.55;;;12.60;99.90;;;;;;4595031;19;20010;-31
2023/01/08 06:06:50;;;;;;;33.17;27.80;;;12.60;99.90;;;;;;4592110;19;20023;-27
2023/01/08 06:08:21;;;;;;;32.15;26.80;;;12.60;99.90;;;;;;4593751;19;20018;-28
2023/01/08 06:09:52;;;;;;;30.08;25.15;;;12.60;99.90;;;;;;4593191;19;20011;-30
2023/01/08 06:11:24;;;;;;;34.15;26.27;;;12.60;99.90;;;;;;4592899;19;20015;-30
2023/01/08 06:12:55;;;;;;;36.58;28.77;;;12.60;99.90;;;;;;4594584;19;20017;-26
2023/01/08 06:14:26;;;;;;;35.75;30.55;;;12.70;99.90;;;;;;4594820;19;20006;-29
2023/01/08 06:15:59;;;;;;;34.63;28.63;;;12.70;99.90;;;;;;4594983;19;20037;-27
2023/01/08 06:17:30;;;;;;;34.23;27.97;;;12.70;99.90;;;;;;4594690;19;20039;-30
2023/01/08 06:19:01;;;;;;;39.53;30.45;;;12.70;99.90;;;;;;4594121;19;20070;-30
2023/01/08 06:20:33;;;;;;;35.72;29.13;;;12.70;99.90;;;;;;4594332;19;20017;-30
2023/01/08 06:22:04;;;;;;;51.00;35.55;;;12.70;99.90;;;;;;4594019;19;20456;-29
2023/01/08 06:23:35;;;;;;;;;;;12.70;99.90;;;;;;4594573;19;20484;-28
2023/01/08 06:25:07;;;;;;;51.70;37.57;;;12.70;99.90;;;;;;4593747;19;19918;-30
2023/01/08 06:26:38;;;;;;;46.78;34.25;;;12.70;99.90;;;;;;4594540;19;20074;-28
2023/01/08 06:28:10;;;;;;;60.67;41.92;;;12.70;99.90;;;;;;4593766;19;20035;-31
2023/01/08 06:29:42;;;;;;;56.13;38.27;;;12.70;99.90;;;;;;4594046;19;20018;-30
2023/01/08 06:31:14;;;;;;;57.03;38.43;;;12.70;99.90;;;;;;4594825;19;20015;-34
2023/01/08 06:32:45;;;;;;;67.03;41.80;;;12.70;99.90;;;;;;4593572;19;20018;-34
2023/01/08 06:34:17;;;;;;;57.40;40.00;;;12.70;99.90;;;;;;4590278;19;20452;-33
2023/01/08 06:35:48;;;;;;;36.85;30.60;;;12.70;99.90;;;;;;4592548;19;20018;-31
2023/01/08 06:37:19;;;;;;;38.78;30.92;;;12.70;99.90;;;;;;4593897;19;20116;-31
2023/01/08 06:40:38;;;;;;;43.70;33.80;;;12.70;99.90;;;;;;4592352;19;20006;-27
2023/01/08 06:42:10;;;;;;;43.70;34.20;;;12.80;99.90;;;;;;4592714;19;20460;-35
2023/01/08 06:43:42;;;;;;;36.28;30.92;;;12.90;99.90;;;;;;4592518;19;20045;-32
2023/01/08 06:45:13;;;;;;;37.20;30.00;;;12.90;99.90;;;;;;4594113;19;20022;-28
2023/01/08 06:46:44;;;;;;;32.42;27.10;;;13.00;99.90;;;;;;4591189;19;20018;-30
2023/01/08 06:48:17;;;;;;;31.23;26.27;;;13.00;99.90;;;;;;4591344;19;20082;-26
2023/01/08 06:49:48;;;;;;;33.40;27.27;;;13.10;99.90;;;;;;4592795;19;20014;-27
2023/01/08 06:51:19;;;;;;;39.20;32.08;;;13.10;99.90;;;;;;4591478;19;20027;-32
2023/01/08 06:52:52;;;;;;;42.08;34.55;;;11.80;99.90;;;;;;4594287;19;20014;-33
2023/01/08 06:54:24;;;;;;;42.93;33.93;;;10.70;99.90;;;;;;4593105;19;20023;-31
2023/01/08 06:55:57;;;;;;;46.20;35.97;;;10.10;99.90;;;;;;4591756;19;20453;-28
2023/01/08 06:57:29;;;;;;;50.23;40.80;;;9.80;99.90;;;;;;4591014;19;20014;-31
2023/01/08 06:59:01;;;;;;;58.93;47.80;;;9.60;99.90;;;;;;4591451;19;20452;-28
2023/01/08 07:00:32;;;;;;;46.95;36.95;;;9.60;99.90;;;;;;4591927;19;20425;-29
2023/01/08 07:02:03;;;;;;;46.67;36.58;;;9.50;99.90;;;;;;4591042;19;20480;-28
2023/01/08 07:03:34;;;;;;;45.13;35.60;;;9.50;99.90;;;;;;4592140;19;20090;-30
2023/01/08 07:05:06;;;;;;;44.05;32.80;;;9.50;99.90;;;;;;4593653;19;20014;-28
2023/01/08 07:06:37;;;;;;;45.03;32.63;;;9.50;99.90;;;;;;4590494;19;20018;-30
2023/01/08 07:08:18;;;;;;;;;;;9.40;99.90;;;;;;4592856;19;20454;-29
2023/01/08 07:09:49;;;;;;;47.53;36.00;;;9.40;99.90;;;;;;4593024;19;19911;-30
2023/01/08 07:11:20;;;;;;;40.35;32.92;;;9.40;99.90;;;;;;4592213;19;21051;-28
2023/01/08 07:12:51;;;;;;;38.78;29.75;;;9.40;99.90;;;;;;4592283;19;20011;-28
2023/01/08 07:14:22;;;;;;;38.97;31.20;;;9.40;99.90;;;;;;4591985;19;20018;-29
2023/01/08 07:15:54;;;;;;;40.58;31.50;;;9.30;99.90;;;;;;4594293;19;20113;-29
2023/01/08 07:17:27;;;;;;;39.80;31.50;;;9.30;99.90;;;;;;4593369;19;20025;-29
2023/01/08 07:19:00;;;;;;;39.90;32.10;;;9.30;99.90;;;;;;4591289;19;20475;-29
2023/01/08 07:20:32;;;;;;;42.27;32.00;;;9.30;99.90;;;;;;4592115;19;20486;-29
2023/01/08 07:22:03;;;;;;;38.05;30.17;;;9.30;99.90;;;;;;4592688;19;20437;-31
2023/01/08 07:23:34;;;;;;;39.45;30.42;;;9.30;99.90;;;;;;4592385;19;20014;-29
2023/01/08 07:25:08;;;;;;;39.63;30.20;;;9.30;99.90;;;;;;4592131;19;20011;-29
2023/01/08 07:26:39;;;;;;;37.75;29.70;;;9.30;99.90;;;;;;4592969;19;20497;-28
2023/01/08 07:28:12;;;;;;;41.90;32.20;;;9.30;99.90;;;;;;4592519;19;20472;-29
2023/01/08 07:29:43;;;;;;;38.22;30.95;;;9.20;99.90;;;;;;4591782;19;20548;-30
2023/01/08 07:31:14;;;;;;;38.70;30.00;;;9.20;99.90;;;;;;4592022;19;20011;-30
2023/01/08 07:32:45;;;;;;;39.15;27.92;;;9.20;99.90;;;;;;4592743;19;20021;-29
2023/01/08 07:34:16;;;;;;;37.67;28.02;;;9.20;99.90;;;;;;4592448;19;20086;-28
2023/01/08 07:35:52;;;;;;;37.25;28.15;;;9.20;99.90;;;;;;4592332;19;20357;-28
2023/01/08 07:37:25;;;;;;;33.70;25.70;;;9.30;99.90;;;;;;4590090;19;20015;-28
2023/01/08 07:38:56;;;;;;;33.20;25.50;;;9.80;99.90;;;;;;4590597;19;21047;-30
2023/01/08 07:42:13;;;;;;;32.47;23.73;;;10.70;99.90;;;;;;4591060;19;20019;-29
2023/01/08 07:43:46;;;;;;;32.58;25.67;;;11.00;99.90;;;;;;4589624;19;20849;-28
2023/01/08 07:45:17;;;;;;;33.00;24.87;;;11.20;99.90;;;;;;4590593;19;20038;-27
2023/01/08 07:46:48;;;;;;;32.13;23.67;;;11.40;99.90;;;;;;4592194;19;20425;-29
2023/01/08 07:48:19;;;;;;;32.67;25.95;;;11.50;99.90;;;;;;4593153;19;20025;-29
2023/01/08 07:49:51;;;;;;;38.08;29.15;;;11.60;99.90;;;;;;4593628;19;20471;-28
2023/01/08 07:51:22;;;;;;;34.10;27.13;;;11.70;99.90;;;;;;4593585;19;20014;-28
2023/01/08 07:52:58;;;;;;;31.52;23.90;;;11.70;99.90;;;;;;4592314;19;20021;-28
2023/01/08 07:54:29;;;;;;;31.27;24.80;;;11.80;99.90;;;;;;4591729;19;20031;-27
2023/01/08 07:56:03;;;;;;;30.13;23.83;;;11.80;99.90;;;;;;4592902;19;20503;-28
2023/01/08 07:57:34;;;;;;;32.83;23.80;;;11.90;99.90;;;;;;4593917;19;20445;-29
2023/01/08 07:59:05;;;;;;;30.58;23.75;;;11.90;99.90;;;;;;4592757;19;20513;-29
2023/01/08 08:00:37;;;;;;;31.23;23.25;;;11.90;99.90;;;;;;4594547;19;20029;-27
2023/01/08 08:02:09;;;;;;;28.50;22.83;;;12.00;99.90;;;;;;4590823;19;20018;-28
2023/01/08 08:03:41;;;;;;;30.27;22.90;;;12.00;99.90;;;;;;4590308;19;20492;-32
2023/01/08 08:05:12;;;;;;;31.63;23.67;;;12.00;99.90;;;;;;4592115;19;20021;-34
2023/01/08 08:06:43;;;;;;;28.35;23.35;;;12.00;99.90;;;;;;4590330;19;20018;-27
2023/01/08 08:08:15;;;;;;;30.85;22.98;;;12.10;99.90;;;;;;4590848;19;20046;-29
2023/01/08 08:09:46;;;;;;;32.42;25.88;;;12.10;99.90;;;;;;4591596;19;20009;-28
2023/01/08 08:11:17;;;;;;;39.05;29.40;;;12.30;99.90;;;;;;4591009;19;20454;-29
2023/01/08 08:12:48;;;;;;;39.40;30.10;;;12.30;99.90;;;;;;4590422;19;20467;-28
2023/01/08 08:14:19;;;;;;;37.35;28.85;;;12.30;99.90;;;;;;4587788;19;20037;-30
2023/01/08 08:15:51;;;;;;;32.90;27.50;;;12.30;99.90;;;;;;4589499;19;20015;-31
2023/01/08 08:17:22;;;;;;;34.42;26.58;;;12.40;99.90;;;;;;4590037;19;20347;-28
2023/01/08 08:18:53;;;;;;;32.20;25.65;;;12.40;99.90;;;;;;4590916;19;20014;-38
2023/01/08 08:20:24;;;;;;;34.08;27.90;;;12.40;99.90;;;;;;4591621;19;20014;-29
2023/01/08 08:21:56;;;;;;;34.05;26.17;;;12.40;99.90;;;;;;4590621;19;20007;-30
2023/01/08 08:23:27;;;;;;;36.67;27.05;;;12.40;99.90;;;;;;4590953;19;20010;-30
2023/01/08 08:24:58;;;;;;;33.05;26.00;;;12.40;99.90;;;;;;4591771;19;20033;-27
2023/01/08 08:26:29;;;;;;;30.90;26.88;;;12.40;99.90;;;;;;4591490;19;20023;-30
2023/01/08 08:28:01;;;;;;;33.53;27.25;;;12.50;99.90;;;;;;4591381;19;20536;-28
2023/01/08 08:29:34;;;;;;;34.00;27.33;;;12.50;99.90;;;;;;4590859;19;20014;-34
2023/01/08 08:31:05;;;;;;;30.90;25.25;;;12.50;99.90;;;;;;4590511;19;20010;-29
2023/01/08 08:32:37;;;;;;;34.25;27.77;;;12.50;99.90;;;;;;4588772;19;20011;-30
2023/01/08 08:34:08;;;;;;;;;;;12.50;99.90;;;;;;4590657;19;20014;-29
2023/01/08 08:35:39;;;;;;;32.63;26.57;;;12.50;99.90;;;;;;4589337;19;19918;-28
2023/01/08 08:37:10;;;;;;;32.90;26.00;;;12.50;99.90;;;;;;4589312;19;20078;-30
2023/01/08 08:38:42;;;;;;;34.35;27.08;;;12.50;99.90;;;;;;4591232;19;20515;-32
2023/01/08 08:40:15;;;;;;;32.88;26.50;;;12.50;99.90;;;;;;4590308;19;20014;-31
2023/01/08 08:43:36;;;;;;;34.10;26.83;;;12.50;99.90;;;;;;4589076;19;20009;-32
2023/01/08 08:45:07;;;;;;;35.23;28.40;;;12.50;99.90;;;;;;4589155;19;20021;-34
2023/01/08 08:46:38;;;;;;;33.85;26.50;;;12.50;99.90;;;;;;4589722;19;20009;-29
2023/01/08 08:48:10;;;;;;;37.25;29.23;;;12.50;99.90;;;;;;4591493;19;20093;-28
2023/01/08 08:49:42;;;;;;;37.55;28.55;;;12.50;99.90;;;;;;4591498;19;20018;-29
2023/01/08 08:51:13;;;;;;;37.10;29.50;;;12.60;99.90;;;;;;4590326;19;20006;-27
2023/01/08 08:52:45;;;;;;;37.00;29.58;;;12.60;99.90;;;;;;4590099;19;20066;-29
2023/01/08 08:54:16;;;;;;;34.80;28.50;;;12.60;99.90;;;;;;4590024;19;20026;-28
2023/01/08 08:55:47;;;;;;;46.17;35.67;;;12.60;99.90;;;;;;4591206;19;20015;-31
2023/01/08 08:57:18;;;;;;;45.15;33.65;;;12.60;99.90;;;;;;4591594;19;20010;-33
2023/01/08 08:58:51;;;;;;;47.75;34.97;;;12.60;99.90;;;;;;4590313;19;20075;-31
2023/01/08 09:00:22;;;;;;;43.67;32.60;;;12.60;99.90;;;;;;4590267;19;20007;-33
2023/01/08 09:01:53;;;;;;;48.05;33.95;;;12.60;99.90;;;;;;4590551;19;20007;-29
2023/01/08 09:03:24;;;;;;;36.60;28.40;;;12.60;99.90;;;;;;4590529;19;20470;-33
2023/01/08 09:04:56;;;;;;;39.85;30.58;;;12.60;99.90;;;;;;4589483;19;20018;-34
2023/01/08 09:06:27;;;;;;;33.50;26.80;;;12.60;99.90;;;;;;4588786;19;20014;-36
2023/01/08 09:07:58;;;;;;;39.45;30.48;;;12.60;99.90;;;;;;4589148;19;20026;-33
2023/01/08 09:09:29;;;;;;;39.35;30.02;;;12.60;99.90;;;;;;4586612;19;20090;-29
2023/01/08 09:11:01;;;;;;;34.80;27.65;;;12.60;99.90;;;;;;4591196;19;20471;-29
2023/01/08 09:12:33;;;;;;;33.23;27.07;;;12.60;99.90;;;;;;4589712;19;20385;-27
2023/01/08 09:14:04;;;;;;;34.63;28.15;;;12.60;99.90;;;;;;4590389;19;20082;-29
2023/01/08 09:15:36;;;;;;;35.45;27.52;;;12.60;99.90;;;;;;4589297;19;20019;-29
2023/01/08 09:17:07;;;;;;;32.33;25.57;;;12.60;99.90;;;;;;4587315;19;20014;-38
2023/01/08 09:18:38;;;;;;;32.47;25.23;;;12.60;99.90;;;;;;4589636;19;20022;-30
2023/01/08 09:20:10;;;;;;;31.95;26.35;;;12.60;99.90;;;;;;4589917;19;20006;-35
2023/01/08 09:21:41;;;;;;;;;;;12.60;99.90;;;;;;4589100;19;20464;-27
2023/01/08 09:23:13;;;;;;;33.77;26.77;;;12.60;99.90;;;;;;4588327;19;19922;-28
2023/01/08 09:24:45;;;;;;;34.27;26.63;;;12.60;99.90;;;;;;4588966;19;20021;-29
2023/01/08 09:26:18;;;;;;;36.23;28.23;;;12.60;99.90;;;;;;4587266;19;20021;-30
2023/01/08 09:28:01;;;;;;;48.13;35.75;;;12.70;99.90;;;;;;4588210;19;20014;-34
2023/01/08 09:29:32;;;;;;;51.90;38.22;;;12.60;99.90;;;;;;4587166;19;20503;-31
2023/01/08 09:31:03;;;;;;;47.58;35.85;;;12.60;99.90;;;;;;4587473;19;20011;-33
2023/01/08 09:32:34;;;;;;;38.30;30.23;;;12.70;99.90;;;;;;4588898;19;20463;-28
2023/01/08 09:34:06;;;;;;;36.55;28.20;;;12.70;99.90;;;;;;4586995;19;20029;-33
2023/01/08 09:35:37;;;;;;;36.33;27.15;;;12.70;99.90;;;;;;4587931;19;20029;-31
2023/01/08 09:37:08;;;;;;;30.83;25.27;;;12.60;99.90;;;;;;4588072;19;20043;-37
2023/01/08 09:38:39;;;;;;;32.90;27.02;;;12.60;99.90;;;;;;4589764;19;20026;-31
2023/01/08 09:40:13;;;;;;;31.70;27.05;;;12.60;99.90;;;;;;4590095;19;20035;-34
2023/01/08 09:41:45;;;;;;;35.13;27.40;;;12.60;99.90;;;;;;4588509;19;20015;-28
2023/01/08 09:43:18;;;;;;;38.00;30.35;;;12.60;99.90;;;;;;4588402;19;20014;-31
2023/01/08 09:46:35;;;;;;;36.83;29.10;;;12.60;99.90;;;;;;4588601;19;20058;-28
2023/01/08 09:48:11;;;;;;;38.33;29.20;;;12.60;99.90;;;;;;4588926;19;20471;-28
2023/01/08 09:49:43;;;;;;;34.40;26.30;;;12.60;99.90;;;;;;4587480;19;20011;-28
2023/01/08 09:51:18;;;;;;;37.60;29.77;;;12.70;99.90;;;;;;4587102;19;20010;-29
2023/01/08 09:52:49;;;;;;;37.27;28.57;;;12.70;99.90;;;;;;4586510;19;20022;-28
2023/01/08 09:54:20;;;;;;;35.15;26.27;;;12.60;99.90;;;;;;4586722;19;20554;-28
2023/01/08 09:55:57;;;;;;;35.22;28.02;;;12.70;99.90;;;;;;4586803;19;20441;-28
2023/01/08 09:57:29;;;;;;;36.93;27.87;;;12.70;99.90;;;;;;4589725;19;20014;-27
2023/01/08 09:59:01;;;;;;;35.83;26.50;;;12.70;99.90;;;;;;4588713;19;20018;-28
2023/01/08 10:00:32;;;;;;;33.80;26.60;;;12.60;99.90;;;;;;4589531;19;20047;-28
2023/01/08 10:02:04;;;;;;;33.03;26.52;;;12.70;99.90;;;;;;4588207;19;20362;-30
2023/01/08 10:03:50;;;;;;;38.15;27.55;;;12.70;99.90;;;;;;4589540;19;20015;-34
2023/01/08 10:05:21;;;;;;;40.97;31.43;;;12.70;99.90;;;;;;4589311;19;20026;-30
2023/01/08 10:06:59;;;;;;;37.03;28.23;;;12.60;99.90;;;;;;4585267;19;20380;-29
2023/01/08 10:08:30;;;;;;;35.60;27.90;;;12.60;99.90;;;;;;4589587;19;20019;-28
2023/01/08 10:10:01;;;;;;;34.95;27.55;;;12.60;99.90;;;;;;4589516;19;20013;-29
2023/01/08 10:11:46;;;;;;;34.57;26.77;;;12.60;99.90;;;;;;4588209;19;20153;-29
2023/01/08 10:13:17;;;;;;;38.13;29.40;;;12.60;99.90;;;;;;4588271;19;20392;-28
2023/01/08 10:14:48;;;;;;;38.38;29.40;;;12.60;99.90;;;;;;4588486;19;20474;-31
2023/01/08 10:16:32;;;;;;;39.05;30.02;;;12.70;99.90;;;;;;4588332;19;20364;-29
2023/01/08 10:18:11;;;;;;;41.40;32.70;;;12.60;99.90;;;;;;4588547;19;20006;-29
2023/01/08 10:19:44;;;;;;;42.63;33.17;;;12.60;99.90;;;;;;4587280;19;20417;-31
2023/01/08 10:21:15;;;;;;;40.13;31.20;;;12.60;99.90;;;;;;4588180;19;20432;-29
2023/01/08 10:22:46;;;;;;;39.75;31.20;;;12.60;99.90;;;;;;4588484;19;20014;-28
2023/01/08 10:24:30;;;;;;;35.03;27.70;;;12.60;99.90;;;;;;4588719;19;20460;-30
2023/01/08 10:26:04;;;;;;;36.30;29.27;;;12.50;99.90;;;;;;4589019;19;20018;-29
2023/01/08 10:28:01;;;;;;;38.00;28.60;;;12.60;99.90;;;;;;4589656;19;20494;-29
2023/01/08 10:29:32;;;;;;;36.10;27.73;;;12.60;99.90;;;;;;4586895;19;20007;-28
2023/01/08 10:31:14;;;;;;;37.63;29.73;;;12.60;99.90;;;;;;4588822;19;20041;-28
2023/01/08 10:32:55;;;;;;;35.33;28.90;;;12.60;99.90;;;;;;4588294;19;20010;-31
2023/01/08 10:34:32;;;;;;;34.77;28.00;;;12.60;99.90;;;;;;4588107;19;20346;-29
2023/01/08 10:36:06;;;;;;;34.43;27.23;;;12.60;99.90;;;;;;4588795;19;20015;-28
2023/01/08 10:37:41;;;;;;;36.17;28.17;;;12.60;99.90;;;;;;4590836;19;20326;-29
2023/01/08 10:39:38;;;;;;;42.67;32.80;;;12.60;99.90;;;;;;4591464;19;20015;-29
2023/01/08 10:41:11;;;;;;;36.17;28.70;;;12.60;99.90;;;;;;4592060;19;20007;-29
2023/01/08 10:42:42;;;;;;;36.30;27.63;;;12.60;99.90;;;;;;4592347;19;20046;-29
2023/01/08 10:44:17;;;;;;;44.70;34.28;;;12.60;99.90;;;;;;4591504;19;20014;-28
2023/01/08 10:49:23;;;;;;;34.60;29.43;;;12.60;99.90;;;;;;4590336;19;20005;-29
2023/01/08 10:51:16;;;;;;;32.93;26.67;;;12.60;99.90;;;;;;4593274;19;20018;-30
2023/01/08 10:52:54;;;;;;;29.75;26.52;;;12.60;99.90;;;;;;4592577;19;20026;-29
2023/01/08 10:54:38;;;;;;;36.47;29.13;;;12.60;99.90;;;;;;4592689;19;20066;-28
2023/01/08 10:56:27;;;;;;;42.03;30.73;;;12.50;99.90;;;;;;4593919;19;20031;-28
2023/01/08 10:58:03;;;;;;;31.37;23.97;;;12.50;99.90;;;;;;4594769;19;20456;-31
2023/01/08 10:59:35;;;;;;;28.73;24.47;;;12.50;99.90;;;;;;4590418;19;20010;-29
2023/01/08 11:01:11;;;;;;;38.38;27.63;;;12.50;99.90;;;;;;4589369;19;20003;-29
2023/01/08 11:02:42;;;;;;;31.47;25.33;;;12.50;99.90;;;;;;4592816;19;20019;-33
2023/01/08 11:04:23;;;;;;;29.70;24.03;;;12.60;99.90;;;;;;4593458;19;20010;-32
2023/01/08 11:05:55;;;;;;;36.53;28.90;;;12.60;99.90;;;;;;4589895;19;20071;-33
2023/01/08 11:07:27;;;;;;;33.73;26.77;;;12.60;99.90;;;;;;4592036;19;20022;-34
2023/01/08 11:09:22;;;;;;;35.88;30.15;;;12.60;99.90;;;;;;4589833;19;20685;-32
2023/01/08 11:10:56;;;;;;;30.50;25.03;;;12.60;99.90;;;;;;4589346;19;20051;-34
2023/01/08 11:12:36;;;;;;;29.60;24.40;;;12.60;99.90;;;;;;4589509;19;20092;-34
2023/01/08 11:14:29;;;;;;;32.00;26.80;;;12.60;99.90;;;;;;4589281;19;20023;-37
2023/01/08 11:16:09;;;;;;;29.77;25.07;;;12.70;99.90;;;;;;4591402;19;20031;-31
2023/01/08 11:17:40;;;;;;;29.80;24.33;;;12.60;99.90;;;;;;4591373;19;20074;-32
2023/01/08 11:19:30;;;;;;;31.23;26.45;;;12.70;99.90;;;;;;4590329;19;20081;-31
2023/01/08 11:21:16;;;;;;;33.50;26.20;;;12.70;99.90;;;;;;4593920;19;20734;-33
2023/01/08 11:22:48;;;;;;;33.43;26.37;;;12.70;99.90;;;;;;4591432;19;20031;-29
2023/01/08 11:24:24;;;;;;;28.75;25.23;;;12.70;99.90;;;;;;4591618;19;20025;-31
2023/01/08 11:26:14;;;;;;;30.20;26.93;;;12.70;99.90;;;;;;4593017;19;20037;-32
2023/01/08 11:27:46;;;;;;;31.07;25.93;;;12.70;99.90;;;;;;4590672;19;20018;-31
2023/01/08 11:29:37;;;;;;;31.03;25.17;;;12.60;99.90;;;;;;4591543;19;20459;-36
2023/01/08 11:31:17;;;;;;;27.70;22.80;;;12.70;99.90;;;;;;4590588;19;20006;-31
2023/01/08 11:33:12;;;;;;;27.57;23.83;;;12.70;99.90;;;;;;4592940;19;20022;-31
2023/01/08 11:34:58;;;;;;;31.57;25.50;;;12.70;99.90;;;;;;4590607;19;20041;-31
2023/01/08 11:36:33;;;;;;;31.27;24.33;;;12.60;99.90;;;;;;4590057;19;20019;-29
2023/01/08 11:38:07;;;;;;;32.73;26.00;;;12.60;99.90;;;;;;4591748;19;20015;-27
2023/01/08 11:39:38;;;;;;;46.30;33.10;;;12.60;99.90;;;;;;4592350;19;20037;-30
2023/01/08 11:41:53;;;;;;;65.60;45.10;;;12.60;99.90;;;;;;4591107;19;20018;-32
2023/01/08 11:43:34;;;;;;;46.03;36.80;;;12.60;99.90;;;;;;4588585;19;20010;-30
2023/01/08 11:45:40;;;;;;;31.27;25.67;;;12.60;99.90;;;;;;4590581;19;20361;-30
2023/01/08 11:47:17;;;;;;;32.03;27.13;;;12.60;99.90;;;;;;4588992;19;20019;-30
2023/01/08 11:49:03;;;;;;;29.23;24.30;;;12.60;99.90;;;;;;4581634;19;20516;-30
2023/01/08 11:52:48;;;;;;;30.43;24.13;;;12.60;99.90;;;;;;4587737;19;20022;-31
2023/01/08 11:54:21;;;;;;;33.70;27.17;;;12.60;99.90;;;;;;4588995;19;20414;-35
2023/01/08 11:56:30;;;;;;;35.67;27.90;;;12.70;99.90;;;;;;4589402;19;20437;-30
2023/01/08 11:58:37;;;;;;;33.47;26.17;;;12.60;99.90;;;;;;4589644;19;20476;-31
2023/01/08 12:00:40;;;;;;;34.73;26.93;;;12.60;99.90;;;;;;4590656;19;20022;-35
2023/01/08 12:03:02;;;;;;;37.80;28.30;;;12.60;99.90;;;;;;4587885;19;20014;-37
2023/01/08 12:05:07;;;;;;;37.67;29.83;;;12.60;99.90;;;;;;4588075;19;20014;-32
2023/01/08 12:06:59;;;;;;;34.87;28.77;;;12.60;99.90;;;;;;4587517;19;20518;-33
2023/01/08 12:09:20;;;;;;;37.30;28.38;;;12.60;99.90;;;;;;4585441;19;20023;-35
2023/01/08 12:11:11;;;;;;;33.57;26.60;;;12.70;99.90;;;;;;4587570;19;20052;-33
2023/01/08 12:12:52;;;;;;;30.67;25.73;;;12.70;99.90;;;;;;4588646;19;20466;-29
2023/01/08 12:14:48;;;;;;;32.63;26.50;;;12.70;99.90;;;;;;4586132;19;20010;-29
2023/01/08 12:17:24;;;;;;;32.63;25.83;;;12.70;99.90;;;;;;4610573;19;20800;-33
2023/01/08 12:19:07;;;;;;;36.50;28.73;;;12.70;99.90;;;;;;4608620;19;20107;-30
2023/01/08 12:21:10;;;;;;;35.97;29.43;;;12.70;99.90;;;;;;4610000;19;20476;-28
2023/01/08 12:23:06;;;;;;;34.50;26.57;;;12.70;99.90;;;;;;4609484;19;20052;-28
2023/01/08 12:25:00;;;;;;;40.33;31.67;;;12.70;99.90;;;;;;4609671;19;20014;-29
2023/01/08 12:26:55;;;;;;;39.47;30.97;;;12.70;99.90;;;;;;4609270;19;20014;-32
2023/01/08 12:28:37;;;;;;;34.80;29.53;;;12.70;99.90;;;;;;4607189;19;20026;-30
2023/01/08 12:30:41;;;;;;;34.83;29.37;;;12.70;99.90;;;;;;4609054;19;20015;-31
2023/01/08 12:32:29;;;;;;;32.90;27.20;;;12.70;99.90;;;;;;4609287;19;20368;-30
2023/01/08 12:34:08;;;;;;;34.20;26.83;;;12.70;99.90;;;;;;4609783;19;20014;-27
2023/01/08 12:35:44;;;;;;;35.33;28.10;;;12.70;99.90;;;;;;4609810;19;20033;-30
2023/01/08 12:37:24;;;;;;;33.60;26.87;;;12.70;99.90;;;;;;4609492;19;20014;-29
2023/01/08 12:38:59;;;;;;;33.70;27.90;;;12.70;99.90;;;;;;4610313;19;20006;-31
2023/01/08 12:40:47;;;;;;;37.70;29.57;;;12.80;99.90;;;;;;4609013;19;20011;-29
2023/01/08 12:42:23;;;;;;;37.97;31.10;;;12.80;99.90;;;;;;4610813;19;20432;-34
2023/01/08 12:44:08;;;;;;;36.30;29.57;;;12.90;99.90;;;;;;4609409;19;20036;-31
2023/01/08 12:45:42;;;;;;;33.67;27.57;;;12.90;99.90;;;;;;4609856;19;20432;-29
2023/01/08 12:47:18;;;;;;;46.03;34.33;;;12.90;99.90;;;;;;4610386;19;20016;-29
2023/01/08 12:48:51;;;;;;;49.50;37.10;;;13.00;99.90;;;;;;4608819;19;20966;-28
2023/01/08 12:50:43;;;;;;;35.30;28.67;;;13.00;99.90;;;;;;4610685;19;20018;-30
2023/01/08 12:57:39;;;;;;;30.80;26.43;;;13.00;99.90;;;;;;4609391;19;20010;-28
2023/01/08 12:59:20;;;;;;;31.20;27.80;;;13.00;99.90;;;;;;4610079;19;20402;-32
2023/01/08 13:01:15;;;;;;;33.93;29.23;;;13.00;99.90;;;;;;4609904;19;20026;-34
2023/01/08 13:03:02;;;;;;;33.53;27.37;;;12.90;99.90;;;;;;4609525;19;20133;-32
2023/01/08 13:04:41;;;;;;;37.33;29.53;;;12.90;99.90;;;;;;4609603;19;20360;-28
2023/01/08 13:06:14;;;;;;;37.03;31.93;;;13.00;99.90;;;;;;4611034;19;20015;-27
2023/01/08 13:07:51;;;;;;;34.57;29.33;;;13.00;99.90;;;;;;4608560;19;20022;-28
2023/01/08 13:09:23;;;;;;;37.80;31.43;;;13.00;99.90;;;;;;4610413;19;20046;-32
2023/01/08 13:10:54;;;;;;;;;;;13.00;99.90;;;;;;4611768;19;20510;-27
2023/01/08 13:12:34;;;;;;;42.13;33.93;;;13.00;99.90;;;;;;4610471;19;20272;-26
2023/01/08 13:14:09;;;;;;;37.23;30.73;;;13.00;99.90;;;;;;4608385;19;20010;-31
2023/01/08 13:15:41;;;;;;;34.73;26.73;;;13.00;99.90;;;;;;4610401;19;20029;-33
2023/01/08 13:17:20;;;;;;;33.63;26.35;;;13.00;99.90;;;;;;4609883;19;20022;-31
2023/01/08 13:19:01;;;;;;;35.30;31.17;;;12.90;99.90;;;;;;4610604;19;20018;-29
2023/01/08 13:20:32;;;;;;;37.10;31.48;;;12.90;99.90;;;;;;4609127;19;20038;-30
2023/01/08 13:22:03;;;;;;;52.17;40.97;;;12.90;99.90;;;;;;4606793;19;20051;-30
2023/01/08 13:23:35;;;;;;;;;;;12.90;99.90;;;;;;4609756;19;20043;-30
2023/01/08 13:25:13;;;;;;;49.70;38.40;;;12.90;99.90;;;;;;4609108;19;19917;-27
2023/01/08 13:26:45;;;;;;;61.13;43.80;;;12.90;99.90;;;;;;4605875;19;20014;-29
2023/01/08 13:28:23;;;;;;;72.33;51.20;;;12.90;99.90;;;;;;4591347;19;20021;-32
2023/01/08 13:29:56;;;;;;;49.20;38.83;;;12.80;99.90;;;;;;4590766;19;20024;-29
2023/01/08 13:31:37;;;;;;;63.23;47.27;;;12.80;99.90;;;;;;4589906;19;20398;-30
2023/01/08 13:33:25;;;;;;;55.30;41.60;;;12.80;99.90;;;;;;4591577;19;20381;-28
2023/01/08 13:35:02;;;;;;;58.47;42.70;;;12.80;99.90;;;;;;4590126;19;20022;-27
2023/01/08 13:36:33;;;;;;;37.23;29.47;;;12.80;99.90;;;;;;4589528;19;20025;-28
2023/01/08 13:38:24;;;;;;;32.58;28.65;;;12.80;99.90;;;;;;4589216;19;20035;-31
2023/01/08 13:39:56;;;;;;;46.72;37.53;;;12.70;99.90;;;;;;4589975;19;20006;-28
2023/01/08 13:41:31;;;;;;;46.38;36.80;;;12.70;99.90;;;;;;4590014;19;20031;-31
2023/01/08 13:43:14;;;;;;;55.77;41.50;;;12.70;99.90;;;;;;4589666;19;20098;-29
2023/01/08 13:45:05;;;;;;;38.77;31.57;;;12.70;99.90;;;;;;4591566;19;20014;-29
2023/01/08 13:46:39;;;;;;;60.95;43.35;;;12.70;99.90;;;;;;4590585;19;20019;-30
2023/01/08 13:48:22;;;;;;;47.97;36.20;;;12.70;99.90;;;;;;4591269;19;20105;-30
2023/01/08 13:49:53;;;;;;;43.95;31.38;;;12.70;99.90;;;;;;4588585;19;20006;-32
2023/01/08 13:51:43;;;;;;;72.30;49.03;;;12.70;99.90;;;;;;4589935;19;20025;-28
2023/01/08 13:53:15;;;;;;;65.50;46.33;;;11.40;99.90;;;;;;4588996;19;20457;-29
2023/01/08 13:54:46;;;;;;;58.60;43.15;;;10.70;99.90;;;;;;4592004;19;20436;-30
2023/01/08 13:56:17;;;;;;;64.55;46.95;;;10.40;99.90;;;;;;4588406;19;20023;-29
2023/01/08 14:01:15;;;;;;;71.23;49.73;;;10.10;99.90;;;;;;4592565;19;20441;-28
2023/01/08 14:02:49;;;;;;;56.15;40.65;;;10.10;99.90;;;;;;4590317;19;20445;-28
2023/01/08 14:04:22;;;;;;;75.37;51.00;;;10.10;99.90;;;;;;4590385;19;20014;-28
2023/01/08 14:10:58;;;;;;;49.70;35.97;;;10.00;99.90;;;;;;4589645;19;19995;-29
2023/01/08 14:12:29;;;;;;;54.33;39.08;;;10.00;99.90;;;;;;4590246;19;20457;-28
2023/01/08 14:14:00;;;;;;;59.47;44.95;;;10.00;99.90;;;;;;4588413;19;20613;-27